»·PEaware :: SWA485 KLAS-KBUR

SWA485 :: KLAS-KBUR

FLIGHT INFORMATION

Flight Status: Arrived
Operator:
Southwest Airlines
More flights by this operator :: More flights under this callsign
Pilot: Anonymous 39875 (39875)
Aircraft: BOEING 737-800
(B738)
More flights by this aircraft type
Origin: KLAS Harry Reid Intl
United States
Destination: KBUR Bob Hope-Burbank
United States
More flights between these airports :: More routes between these airports
Route: RADYR2 SLVRR KREME JANNY5
File this flight plan on PilotEdge
Remarks: RMK / SIMBRIEF
Altitude:
(Current/Filed)
22,000ft
Speed:
(Current/Filed)
417kts
Departed: 29-Sep-22 07:54 PM
Arrived: 29-Sep-22 08:39 PM
Distance/Time
Traveled:
193nm/0:44
Distance/Time
To Go:
Arrived

Flight Plot

Page will automatically refresh every two minutes.

Flight plan parsing failed; only flown route is shown


Map Options




Map Legend


Flown Route
Filed Route
Departure Airport
Arrival Airport
Navaid (VOR, NDB)
Fix

Horizontal Profiles

Position Reports

Time Latitude Longitude Heading Altitude Ground
Speed
29-Sep-22 19:33 36.081272 -115.148068 65 2189ft 0kts
29-Sep-22 19:34 36.081272 -115.148068 65 2189ft 0kts
29-Sep-22 19:35 36.081272 -115.148068 65 2189ft 0kts
29-Sep-22 19:36 36.081272 -115.148068 65 2189ft 0kts
29-Sep-22 19:37 36.081272 -115.148068 65 2189ft 0kts
29-Sep-22 19:38 36.081272 -115.148068 65 2189ft 0kts
29-Sep-22 19:39 36.081272 -115.148068 65 2189ft 0kts
29-Sep-22 19:40 36.081272 -115.148068 65 2189ft 0kts
29-Sep-22 19:41 36.081272 -115.148068 65 2189ft 0kts
29-Sep-22 19:41 36.081272 -115.148068 65 2189ft 0kts
29-Sep-22 19:43 36.080947 -115.148932 65 2189ft 2kts
29-Sep-22 19:44 36.080893 -115.149075 65 2189ft 0kts
29-Sep-22 19:45 36.080893 -115.149075 65 2189ft 0kts
29-Sep-22 19:45 36.080661 -115.148972 181 2189ft 6kts
29-Sep-22 19:46 36.079590 -115.148402 157 2189ft 0kts
29-Sep-22 19:47 36.077787 -115.147331 96 2189ft 17kts
29-Sep-22 19:49 36.077542 -115.141648 90 2189ft 18kts
29-Sep-22 19:50 36.077532 -115.134636 90 2189ft 18kts
29-Sep-22 19:50 36.077550 -115.129941 89 2189ft 14kts
29-Sep-22 19:51 36.077548 -115.124885 89 2189ft 18kts
29-Sep-22 19:52 36.076473 -115.121359 216 2189ft 4kts
29-Sep-22 19:53 36.076345 -115.139467 270 2195ft 169kts
29-Sep-22 19:54 36.073974 -115.208308 263 4083ft 211kts
29-Sep-22 19:55 36.046390 -115.266994 199 5947ft 237kts
29-Sep-22 19:56 35.979708 -115.296878 194 7724ft 265kts
29-Sep-22 19:57 35.905950 -115.315266 192 9794ft 282kts
29-Sep-22 19:58 35.825165 -115.335033 192 12008ft 311kts
29-Sep-22 19:59 35.738414 -115.356298 192 14212ft 325kts
29-Sep-22 20:00 35.647220 -115.378589 192 16417ft 343kts
29-Sep-22 20:01 35.566274 -115.441711 231 18915ft 385kts
29-Sep-22 20:02 35.492181 -115.545846 229 21869ft 421kts
29-Sep-22 20:03 35.410699 -115.655691 229 21960ft 437kts
29-Sep-22 20:04 35.327130 -115.763874 224 21969ft 438kts
29-Sep-22 20:05 35.237092 -115.864695 224 21964ft 439kts
29-Sep-22 20:06 35.146868 -115.965337 224 21961ft 439kts
29-Sep-22 20:07 35.056441 -116.065928 224 21969ft 440kts
29-Sep-22 20:08 34.966006 -116.166851 227 21956ft 440kts
29-Sep-22 20:09 34.912748 -116.298839 250 21983ft 436kts
29-Sep-22 20:10 34.867161 -116.435629 249 21981ft 436kts
29-Sep-22 20:11 34.820005 -116.571597 249 22013ft 436kts
29-Sep-22 20:12 34.775738 -116.708739 256 21998ft 434kts
29-Sep-22 20:13 34.758746 -116.852333 265 21344ft 414kts
29-Sep-22 20:14 34.745387 -116.984897 264 20365ft 381kts
29-Sep-22 20:15 34.732562 -117.110835 264 19420ft 371kts
29-Sep-22 20:16 34.719853 -117.234354 264 18536ft 366kts
29-Sep-22 20:17 34.707178 -117.356280 264 17642ft 361kts
29-Sep-22 20:18 34.694542 -117.476638 263 16749ft 357kts
29-Sep-22 20:19 34.681894 -117.595439 263 15849ft 352kts
29-Sep-22 20:20 34.669416 -117.712911 263 15030ft 348kts
29-Sep-22 20:21 34.657117 -117.828326 263 14231ft 336kts
29-Sep-22 20:22 34.645299 -117.937464 262 13386ft 318kts
29-Sep-22 20:23 34.633529 -118.044585 262 11991ft 321kts
29-Sep-22 20:24 34.613106 -118.146283 255 10645ft 297kts
29-Sep-22 20:25 34.591776 -118.242232 254 9434ft 297kts
29-Sep-22 20:26 34.571036 -118.334964 254 8253ft 279kts
29-Sep-22 20:27 34.547432 -118.424016 239 7996ft 265kts
29-Sep-22 20:28 34.490077 -118.477690 215 7390ft 261kts
29-Sep-22 20:29 34.429728 -118.526259 214 6691ft 260kts
29-Sep-22 20:30 34.369103 -118.573264 214 5992ft 258kts
29-Sep-22 20:31 34.301462 -118.591262 178 5365ft 246kts
29-Sep-22 20:32 34.240265 -118.585016 175 4423ft 205kts
29-Sep-22 20:33 34.201982 -118.542700 104 3397ft 189kts
29-Sep-22 20:34 34.199560 -118.486999 91 2732ft 150kts
29-Sep-22 20:35 34.198835 -118.439085 93 1920ft 138kts
29-Sep-22 20:36 34.198263 -118.394986 92 1203ft 127kts
29-Sep-22 20:37 34.197755 -118.355799 95 730ft 65kts
29-Sep-22 20:38 34.197054 -118.351485 182 729ft 2kts

Navigation Log

Ident Type
Flight plan parsing failed, navigation log unavailable